sensor_id;sensor_type;location;lat;lon;timestamp;pressure;altitude;pressure_sealevel;temperature;humidity
27202;BME280;14717;46.924;15.474;2023-09-19T00:01:12;97315.13;;;19.97;100.00
27202;BME280;14717;46.924;15.474;2023-09-19T00:03:38;97318.75;;;19.98;100.00
27202;BME280;14717;46.924;15.474;2023-09-19T00:06:04;97333.41;;;20.07;100.00
27202;BME280;14717;46.924;15.474;2023-09-19T00:08:30;97323.75;;;20.23;100.00
27202;BME280;14717;46.924;15.474;2023-09-19T00:10:57;97332.28;;;20.11;100.00
27202;BME280;14717;46.924;15.474;2023-09-19T00:13:31;97323.66;;;20.19;100.00
27202;BME280;14717;46.924;15.474;2023-09-19T00:15:56;97321.81;;;20.27;100.00
27202;BME280;14717;46.924;15.474;2023-09-19T00:18:24;97321.91;;;20.30;100.00
27202;BME280;14717;46.924;15.474;2023-09-19T00:20:57;97323.16;;;20.33;100.00
27202;BME280;14717;46.924;15.474;2023-09-19T00:23:22;97317.38;;;20.26;100.00
27202;BME280;14717;46.924;15.474;2023-09-19T00:25:49;97322.91;;;20.22;100.00
27202;BME280;14717;46.924;15.474;2023-09-19T00:28:16;97317.00;;;20.27;100.00
27202;BME280;14717;46.924;15.474;2023-09-19T00:30:42;97316.72;;;20.32;100.00
27202;BME280;14717;46.924;15.474;2023-09-19T00:33:08;97320.19;;;20.26;100.00
27202;BME280;14717;46.924;15.474;2023-09-19T00:35:33;97320.59;;;20.24;100.00
27202;BME280;14717;46.924;15.474;2023-09-19T00:37:59;97310.09;;;20.21;100.00
27202;BME280;14717;46.924;15.474;2023-09-19T00:40:25;97315.03;;;20.28;100.00
27202;BME280;14717;46.924;15.474;2023-09-19T00:42:51;97319.25;;;20.37;100.00
27202;BME280;14717;46.924;15.474;2023-09-19T00:45:18;97321.69;;;20.39;100.00
27202;BME280;14717;46.924;15.474;2023-09-19T00:47:45;97323.31;;;20.40;100.00
27202;BME280;14717;46.924;15.474;2023-09-19T00:50:11;97338.16;;;20.40;100.00
27202;BME280;14717;46.924;15.474;2023-09-19T00:52:42;97336.59;;;20.24;100.00
27202;BME280;14717;46.924;15.474;2023-09-19T00:55:11;97342.19;;;20.24;100.00
27202;BME280;14717;46.924;15.474;2023-09-19T00:57:39;97336.91;;;20.38;100.00
27202;BME280;14717;46.924;15.474;2023-09-19T01:00:06;97334.47;;;20.36;100.00
27202;BME280;14717;46.924;15.474;2023-09-19T01:02:36;97328.13;;;20.39;100.00
27202;BME280;14717;46.924;15.474;2023-09-19T01:05:02;97326.09;;;20.21;100.00
27202;BME280;14717;46.924;15.474;2023-09-19T01:07:30;97328.09;;;20.20;100.00
27202;BME280;14717;46.924;15.474;2023-09-19T01:09:57;97329.72;;;20.21;100.00
27202;BME280;14717;46.924;15.474;2023-09-19T01:12:52;97315.84;;;20.28;100.00
27202;BME280;14717;46.924;15.474;2023-09-19T01:26:33;97333.13;;;20.30;100.00
27202;BME280;14717;46.924;15.474;2023-09-19T01:31:44;97336.66;;;20.08;100.00
27202;BME280;14717;46.924;15.474;2023-09-19T01:34:10;97331.75;;;20.06;100.00
27202;BME280;14717;46.924;15.474;2023-09-19T01:36:37;97333.69;;;20.02;100.00
27202;BME280;14717;46.924;15.474;2023-09-19T01:39:11;97331.88;;;19.94;100.00
27202;BME280;14717;46.924;15.474;2023-09-19T01:42:06;97332.94;;;20.05;100.00
27202;BME280;14717;46.924;15.474;2023-09-19T01:44:54;97332.16;;;20.23;100.00
27202;BME280;14717;46.924;15.474;2023-09-19T01:47:46;97339.19;;;20.32;100.00
27202;BME280;14717;46.924;15.474;2023-09-19T01:53:26;97340.38;;;20.31;100.00
27202;BME280;14717;46.924;15.474;2023-09-19T01:55:54;97340.00;;;20.33;100.00
27202;BME280;14717;46.924;15.474;2023-09-19T01:58:52;97345.34;;;20.38;100.00
27202;BME280;14717;46.924;15.474;2023-09-19T02:01:22;97344.06;;;20.35;100.00
27202;BME280;14717;46.924;15.474;2023-09-19T02:03:50;97345.69;;;20.36;100.00
27202;BME280;14717;46.924;15.474;2023-09-19T02:06:16;97355.06;;;20.25;100.00
27202;BME280;14717;46.924;15.474;2023-09-19T02:08:43;97347.72;;;20.20;100.00
27202;BME280;14717;46.924;15.474;2023-09-19T02:11:08;97362.19;;;20.22;100.00
27202;BME280;14717;46.924;15.474;2023-09-19T02:13:34;97365.47;;;20.24;100.00
27202;BME280;14717;46.924;15.474;2023-09-19T02:15:59;97372.47;;;20.15;100.00
27202;BME280;14717;46.924;15.474;2023-09-19T02:18:25;97367.94;;;20.10;100.00
27202;BME280;14717;46.924;15.474;2023-09-19T02:20:53;97372.66;;;20.07;100.00
27202;BME280;14717;46.924;15.474;2023-09-19T02:23:18;97373.47;;;20.07;100.00
27202;BME280;14717;46.924;15.474;2023-09-19T02:25:53;97385.94;;;20.09;100.00
27202;BME280;14717;46.924;15.474;2023-09-19T02:28:19;97388.28;;;20.23;100.00
27202;BME280;14717;46.924;15.474;2023-09-19T02:30:48;97386.38;;;20.27;100.00
27202;BME280;14717;46.924;15.474;2023-09-19T02:33:16;97390.44;;;20.29;100.00
27202;BME280;14717;46.924;15.474;2023-09-19T02:35:45;97398.69;;;20.22;100.00
27202;BME280;14717;46.924;15.474;2023-09-19T02:38:11;97400.47;;;20.30;100.00
27202;BME280;14717;46.924;15.474;2023-09-19T02:40:37;97396.94;;;20.33;100.00
27202;BME280;14717;46.924;15.474;2023-09-19T02:43:03;97402.63;;;20.37;100.00
27202;BME280;14717;46.924;15.474;2023-09-19T02:45:30;97403.91;;;20.39;100.00
27202;BME280;14717;46.924;15.474;2023-09-19T02:47:55;97407.44;;;20.36;100.00
27202;BME280;14717;46.924;15.474;2023-09-19T02:50:21;97409.06;;;20.37;100.00
27202;BME280;14717;46.924;15.474;2023-09-19T02:52:47;97408.31;;;20.40;100.00
27202;BME280;14717;46.924;15.474;2023-09-19T02:55:14;97405.88;;;20.39;100.00
27202;BME280;14717;46.924;15.474;2023-09-19T02:57:47;97411.13;;;20.40;100.00
27202;BME280;14717;46.924;15.474;2023-09-19T03:00:12;97414.66;;;20.37;100.00
27202;BME280;14717;46.924;15.474;2023-09-19T03:02:38;97417.84;;;20.36;100.00
27202;BME280;14717;46.924;15.474;2023-09-19T03:05:05;97425.72;;;20.30;100.00
27202;BME280;14717;46.924;15.474;2023-09-19T03:07:32;97425.28;;;20.28;100.00
27202;BME280;14717;46.924;15.474;2023-09-19T03:09:57;97419.31;;;20.14;100.00
27202;BME280;14717;46.924;15.474;2023-09-19T03:12:23;97423.97;;;20.07;100.00
27202;BME280;14717;46.924;15.474;2023-09-19T03:14:48;97427.66;;;20.11;100.00
27202;BME280;14717;46.924;15.474;2023-09-19T03:17:18;97433.84;;;20.16;100.00
27202;BME280;14717;46.924;15.474;2023-09-19T03:19:45;97445.56;;;20.22;100.00
27202;BME280;14717;46.924;15.474;2023-09-19T03:22:12;97448.03;;;20.23;100.00
27202;BME280;14717;46.924;15.474;2023-09-19T03:24:37;97448.56;;;20.13;100.00
27202;BME280;14717;46.924;15.474;2023-09-19T03:27:03;97458.88;;;20.09;100.00
27202;BME280;14717;46.924;15.474;2023-09-19T03:29:28;97460.97;;;20.12;100.00
27202;BME280;14717;46.924;15.474;2023-09-19T03:31:54;97457.44;;;20.15;100.00
27202;BME280;14717;46.924;15.474;2023-09-19T03:34:20;97464.22;;;20.14;100.00
27202;BME280;14717;46.924;15.474;2023-09-19T03:36:46;97463.84;;;20.16;100.00
27202;BME280;14717;46.924;15.474;2023-09-19T03:39:11;97471.91;;;20.17;100.00
27202;BME280;14717;46.924;15.474;2023-09-19T03:41:36;97465.03;;;20.00;100.00
27202;BME280;14717;46.924;15.474;2023-09-19T03:44:02;97470.56;;;19.96;100.00
27202;BME280;14717;46.924;15.474;2023-09-19T03:46:28;97469.03;;;19.99;100.00
27202;BME280;14717;46.924;15.474;2023-09-19T03:48:54;97477.72;;;19.94;100.00
27202;BME280;14717;46.924;15.474;2023-09-19T03:51:20;97485.69;;;19.92;100.00
27202;BME280;14717;46.924;15.474;2023-09-19T03:53:45;97478.28;;;19.84;100.00
27202;BME280;14717;46.924;15.474;2023-09-19T03:56:11;97468.00;;;19.76;100.00
27202;BME280;14717;46.924;15.474;2023-09-19T03:58:40;97469.03;;;19.83;100.00
27202;BME280;14717;46.924;15.474;2023-09-19T04:01:05;97467.50;;;19.86;100.00
27202;BME280;14717;46.924;15.474;2023-09-19T04:03:34;97460.13;;;19.81;100.00
27202;BME280;14717;46.924;15.474;2023-09-19T04:06:10;97468.47;;;19.78;100.00
27202;BME280;14717;46.924;15.474;2023-09-19T04:08:35;97461.97;;;19.74;100.00
27202;BME280;14717;46.924;15.474;2023-09-19T04:11:01;97462.75;;;19.74;100.00
27202;BME280;14717;46.924;15.474;2023-09-19T04:13:26;97471.97;;;19.75;100.00
27202;BME280;14717;46.924;15.474;2023-09-19T04:15:51;97465.13;;;19.72;100.00
27202;BME280;14717;46.924;15.474;2023-09-19T04:18:17;97485.72;;;19.64;100.00
27202;BME280;14717;46.924;15.474;2023-09-19T04:20:48;97488.78;;;19.44;100.00
27202;BME280;14717;46.924;15.474;2023-09-19T04:23:14;97496.25;;;19.40;100.00
27202;BME280;14717;46.924;15.474;2023-09-19T04:25:40;97493.94;;;19.42;100.00
27202;BME280;14717;46.924;15.474;2023-09-19T04:28:06;97494.13;;;19.49;100.00
27202;BME280;14717;46.924;15.474;2023-09-19T04:30:31;97499.38;;;19.51;100.00
27202;BME280;14717;46.924;15.474;2023-09-19T04:32:57;97505.91;;;19.27;100.00
27202;BME280;14717;46.924;15.474;2023-09-19T04:35:22;97519.09;;;19.00;100.00
27202;BME280;14717;46.924;15.474;2023-09-19T04:37:48;97530.16;;;18.84;100.00
27202;BME280;14717;46.924;15.474;2023-09-19T04:40:13;97538.25;;;18.74;100.00
27202;BME280;14717;46.924;15.474;2023-09-19T04:42:42;97535.88;;;18.88;100.00
27202;BME280;14717;46.924;15.474;2023-09-19T04:45:08;97539.72;;;18.95;100.00
27202;BME280;14717;46.924;15.474;2023-09-19T04:47:37;97546.00;;;18.92;100.00
27202;BME280;14717;46.924;15.474;2023-09-19T04:50:08;97546.13;;;18.96;100.00
27202;BME280;14717;46.924;15.474;2023-09-19T04:52:38;97537.84;;;18.87;100.00
27202;BME280;14717;46.924;15.474;2023-09-19T04:55:04;97547.22;;;18.79;100.00
27202;BME280;14717;46.924;15.474;2023-09-19T04:57:30;97550.91;;;18.95;100.00
27202;BME280;14717;46.924;15.474;2023-09-19T04:59:56;97553.38;;;18.97;100.00
27202;BME280;14717;46.924;15.474;2023-09-19T05:02:22;97555.25;;;19.05;100.00
27202;BME280;14717;46.924;15.474;2023-09-19T05:04:47;97546.59;;;18.98;100.00
27202;BME280;14717;46.924;15.474;2023-09-19T05:07:13;97542.31;;;18.88;100.00
27202;BME280;14717;46.924;15.474;2023-09-19T05:09:38;97549.53;;;18.77;100.00
27202;BME280;14717;46.924;15.474;2023-09-19T05:12:04;97547.78;;;18.73;100.00
27202;BME280;14717;46.924;15.474;2023-09-19T05:14:29;97549.75;;;18.84;100.00
27202;BME280;14717;46.924;15.474;2023-09-19T05:16:55;97550.50;;;18.81;100.00
27202;BME280;14717;46.924;15.474;2023-09-19T05:19:20;97550.34;;;18.78;100.00
27202;BME280;14717;46.924;15.474;2023-09-19T05:21:46;97558.75;;;18.78;100.00
27202;BME280;14717;46.924;15.474;2023-09-19T05:24:12;97556.69;;;18.75;100.00
27202;BME280;14717;46.924;15.474;2023-09-19T05:26:39;97563.31;;;18.82;100.00
27202;BME280;14717;46.924;15.474;2023-09-19T05:29:05;97567.81;;;18.99;100.00
27202;BME280;14717;46.924;15.474;2023-09-19T05:31:33;97562.22;;;18.99;100.00
27202;BME280;14717;46.924;15.474;2023-09-19T05:34:01;97569.25;;;19.05;100.00
27202;BME280;14717;46.924;15.474;2023-09-19T05:36:26;97560.25;;;19.11;100.00
27202;BME280;14717;46.924;15.474;2023-09-19T05:38:54;97570.97;;;19.21;100.00
27202;BME280;14717;46.924;15.474;2023-09-19T05:41:20;97575.03;;;19.23;100.00
27202;BME280;14717;46.924;15.474;2023-09-19T05:43:49;97572.66;;;19.25;100.00
27202;BME280;14717;46.924;15.474;2023-09-19T05:46:15;97568.72;;;19.26;100.00
27202;BME280;14717;46.924;15.474;2023-09-19T05:48:42;97560.06;;;19.31;100.00
27202;BME280;14717;46.924;15.474;2023-09-19T05:51:09;97570.56;;;19.34;100.00
27202;BME280;14717;46.924;15.474;2023-09-19T05:53:35;97571.38;;;19.35;100.00
27202;BME280;14717;46.924;15.474;2023-09-19T05:56:00;97563.50;;;19.40;100.00
27202;BME280;14717;46.924;15.474;2023-09-19T05:58:26;97572.41;;;19.42;100.00
27202;BME280;14717;46.924;15.474;2023-09-19T06:00:51;97570.75;;;19.41;100.00
27202;BME280;14717;46.924;15.474;2023-09-19T06:03:17;97563.25;;;19.45;100.00
27202;BME280;14717;46.924;15.474;2023-09-19T06:05:45;97571.56;;;19.42;100.00
27202;BME280;14717;46.924;15.474;2023-09-19T06:08:14;97563.59;;;19.44;100.00
27202;BME280;14717;46.924;15.474;2023-09-19T06:10:39;97558.13;;;19.47;100.00
27202;BME280;14717;46.924;15.474;2023-09-19T06:13:05;97571.88;;;19.52;100.00
27202;BME280;14717;46.924;15.474;2023-09-19T06:15:31;97569.44;;;19.51;100.00
27202;BME280;14717;46.924;15.474;2023-09-19T06:17:58;97576.31;;;19.53;100.00
27202;BME280;14717;46.924;15.474;2023-09-19T06:20:25;97581.47;;;19.51;100.00
27202;BME280;14717;46.924;15.474;2023-09-19T06:22:52;97578.31;;;19.53;100.00
27202;BME280;14717;46.924;15.474;2023-09-19T06:25:18;97589.88;;;19.51;100.00
27202;BME280;14717;46.924;15.474;2023-09-19T06:27:51;97586.41;;;19.42;100.00
27202;BME280;14717;46.924;15.474;2023-09-19T06:30:18;97589.09;;;19.39;100.00
27202;BME280;14717;46.924;15.474;2023-09-19T06:32:44;97598.78;;;19.41;100.00
27202;BME280;14717;46.924;15.474;2023-09-19T06:35:11;97599.47;;;19.38;100.00
27202;BME280;14717;46.924;15.474;2023-09-19T06:37:41;97606.94;;;19.46;100.00
27202;BME280;14717;46.924;15.474;2023-09-19T06:42:34;97607.59;;;19.55;100.00
27202;BME280;14717;46.924;15.474;2023-09-19T06:45:03;97621.84;;;19.62;100.00
27202;BME280;14717;46.924;15.474;2023-09-19T06:47:28;97634.75;;;19.66;100.00
27202;BME280;14717;46.924;15.474;2023-09-19T06:49:54;97649.03;;;19.62;100.00
27202;BME280;14717;46.924;15.474;2023-09-19T06:52:19;97651.59;;;19.66;100.00
27202;BME280;14717;46.924;15.474;2023-09-19T06:54:47;97653.31;;;19.71;100.00
27202;BME280;14717;46.924;15.474;2023-09-19T06:57:16;97643.16;;;19.78;100.00
27202;BME280;14717;46.924;15.474;2023-09-19T06:59:41;97652.59;;;19.86;100.00
27202;BME280;14717;46.924;15.474;2023-09-19T07:02:06;97654.94;;;19.84;100.00
27202;BME280;14717;46.924;15.474;2023-09-19T07:04:32;97657.25;;;19.94;100.00
27202;BME280;14717;46.924;15.474;2023-09-19T07:06:58;97644.03;;;19.94;100.00
27202;BME280;14717;46.924;15.474;2023-09-19T07:09:23;97657.25;;;19.94;100.00
27202;BME280;14717;46.924;15.474;2023-09-19T07:11:49;97656.63;;;20.00;100.00
27202;BME280;14717;46.924;15.474;2023-09-19T07:14:16;97672.63;;;20.00;100.00
27202;BME280;14717;46.924;15.474;2023-09-19T07:16:41;97681.19;;;19.91;100.00
27202;BME280;14717;46.924;15.474;2023-09-19T07:19:09;97683.00;;;19.72;100.00
27202;BME280;14717;46.924;15.474;2023-09-19T07:21:35;97687.69;;;19.68;100.00
27202;BME280;14717;46.924;15.474;2023-09-19T07:24:04;97689.31;;;19.69;100.00
27202;BME280;14717;46.924;15.474;2023-09-19T07:26:30;97686.97;;;19.71;100.00
27202;BME280;14717;46.924;15.474;2023-09-19T07:28:56;97690.13;;;19.69;100.00
27202;BME280;14717;46.924;15.474;2023-09-19T07:31:22;97697.47;;;19.74;100.00
27202;BME280;14717;46.924;15.474;2023-09-19T07:33:48;97704.22;;;19.85;100.00
27202;BME280;14717;46.924;15.474;2023-09-19T07:36:14;97714.50;;;19.93;100.00
27202;BME280;14717;46.924;15.474;2023-09-19T07:38:40;97716.13;;;19.94;100.00
27202;BME280;14717;46.924;15.474;2023-09-19T07:41:06;97716.41;;;19.89;100.00
27202;BME280;14717;46.924;15.474;2023-09-19T07:43:31;97722.34;;;19.87;100.00
27202;BME280;14717;46.924;15.474;2023-09-19T07:46:03;97729.00;;;19.83;100.00
27202;BME280;14717;46.924;15.474;2023-09-19T07:48:28;97721.78;;;19.82;100.00
27202;BME280;14717;46.924;15.474;2023-09-19T07:50:54;97726.91;;;19.92;100.00
27202;BME280;14717;46.924;15.474;2023-09-19T07:53:20;97725.72;;;19.93;100.00
27202;BME280;14717;46.924;15.474;2023-09-19T07:55:45;97726.84;;;20.04;100.00
27202;BME280;14717;46.924;15.474;2023-09-19T07:58:13;97719.53;;;20.14;100.00
27202;BME280;14717;46.924;15.474;2023-09-19T08:00:40;97720.34;;;20.42;100.00
27202;BME280;14717;46.924;15.474;2023-09-19T08:03:06;97730.50;;;20.74;100.00
27202;BME280;14717;46.924;15.474;2023-09-19T08:05:32;97738.56;;;20.91;100.00
27202;BME280;14717;46.924;15.474;2023-09-19T08:07:58;97740.94;;;20.89;100.00
27202;BME280;14717;46.924;15.474;2023-09-19T08:10:24;97741.25;;;20.72;100.00
27202;BME280;14717;46.924;15.474;2023-09-19T08:12:52;97738.66;;;20.79;100.00
27202;BME280;14717;46.924;15.474;2023-09-19T08:15:23;97728.97;;;21.07;100.00
27202;BME280;14717;46.924;15.474;2023-09-19T08:17:48;97740.19;;;21.22;100.00
27202;BME280;14717;46.924;15.474;2023-09-19T08:20:14;97739.91;;;21.12;100.00
27202;BME280;14717;46.924;15.474;2023-09-19T08:22:47;97739.72;;;20.90;100.00
27202;BME280;14717;46.924;15.474;2023-09-19T08:25:14;97742.97;;;20.76;100.00
27202;BME280;14717;46.924;15.474;2023-09-19T08:27:43;97742.28;;;21.10;100.00
27202;BME280;14717;46.924;15.474;2023-09-19T08:30:10;97748.66;;;21.41;100.00
27202;BME280;14717;46.924;15.474;2023-09-19T08:32:36;97759.13;;;21.56;100.00
27202;BME280;14717;46.924;15.474;2023-09-19T08:35:02;97754.72;;;21.74;100.00
27202;BME280;14717;46.924;15.474;2023-09-19T08:37:27;97750.00;;;21.96;100.00
27202;BME280;14717;46.924;15.474;2023-09-19T08:39:52;97752.81;;;21.96;100.00
27202;BME280;14717;46.924;15.474;2023-09-19T08:42:18;97764.38;;;21.91;100.00
27202;BME280;14717;46.924;15.474;2023-09-19T08:44:46;97753.78;;;21.85;100.00
27202;BME280;14717;46.924;15.474;2023-09-19T08:47:15;97758.59;;;21.84;100.00
27202;BME280;14717;46.924;15.474;2023-09-19T08:52:32;97761.31;;;22.15;100.00
27202;BME280;14717;46.924;15.474;2023-09-19T08:55:02;97755.97;;;22.48;99.10
27202;BME280;14717;46.924;15.474;2023-09-19T08:57:35;97753.75;;;22.57;96.66
27202;BME280;14717;46.924;15.474;2023-09-19T09:00:05;97756.06;;;22.51;98.50
27202;BME280;14717;46.924;15.474;2023-09-19T09:02:40;97754.81;;;22.30;99.07
27202;BME280;14717;46.924;15.474;2023-09-19T09:05:08;97752.78;;;22.49;98.62
27202;BME280;14717;46.924;15.474;2023-09-19T09:07:35;97753.00;;;22.60;94.21
27202;BME280;14717;46.924;15.474;2023-09-19T09:10:05;97760.69;;;22.63;94.86
27202;BME280;14717;46.924;15.474;2023-09-19T09:12:30;97772.38;;;22.61;95.05
27202;BME280;14717;46.924;15.474;2023-09-19T09:14:56;97782.94;;;22.67;95.10
27202;BME280;14717;46.924;15.474;2023-09-19T09:17:25;97773.78;;;22.52;92.64
27202;BME280;14717;46.924;15.474;2023-09-19T09:19:54;97784.94;;;22.67;95.31
27202;BME280;14717;46.924;15.474;2023-09-19T09:22:19;97786.06;;;22.63;90.22
27202;BME280;14717;46.924;15.474;2023-09-19T09:24:53;97792.16;;;22.65;95.00
27202;BME280;14717;46.924;15.474;2023-09-19T09:27:29;97784.50;;;22.65;97.35
27202;BME280;14717;46.924;15.474;2023-09-19T09:29:55;97777.97;;;22.80;95.37
27202;BME280;14717;46.924;15.474;2023-09-19T09:32:30;97782.19;;;22.70;94.96
27202;BME280;14717;46.924;15.474;2023-09-19T09:35:00;97790.56;;;22.86;95.64
27202;BME280;14717;46.924;15.474;2023-09-19T09:37:27;97787.91;;;22.74;93.44
27202;BME280;14717;46.924;15.474;2023-09-19T09:40:00;97785.91;;;22.56;96.48
27202;BME280;14717;46.924;15.474;2023-09-19T09:42:44;97779.31;;;22.67;93.57
27202;BME280;14717;46.924;15.474;2023-09-19T09:45:21;97779.00;;;22.72;90.79
27202;BME280;14717;46.924;15.474;2023-09-19T09:48:02;97781.38;;;22.70;92.52
27202;BME280;14717;46.924;15.474;2023-09-19T09:50:46;97788.44;;;22.61;91.27
27202;BME280;14717;46.924;15.474;2023-09-19T09:53:23;97785.38;;;22.69;90.07
27202;BME280;14717;46.924;15.474;2023-09-19T09:58:52;97768.09;;;22.89;90.78
27202;BME280;14717;46.924;15.474;2023-09-19T10:01:20;97770.69;;;22.98;90.16
27202;BME280;14717;46.924;15.474;2023-09-19T10:03:57;97780.53;;;23.07;84.46
27202;BME280;14717;46.924;15.474;2023-09-19T10:06:23;97786.00;;;23.19;84.03
27202;BME280;14717;46.924;15.474;2023-09-19T10:09:17;97783.47;;;23.14;83.15
27202;BME280;14717;46.924;15.474;2023-09-19T10:11:48;97787.16;;;23.18;83.93
27202;BME280;14717;46.924;15.474;2023-09-19T10:14:31;97798.63;;;23.28;85.94
27202;BME280;14717;46.924;15.474;2023-09-19T10:17:02;97806.34;;;23.53;82.79
27202;BME280;14717;46.924;15.474;2023-09-19T10:19:36;97798.19;;;23.49;82.69
27202;BME280;14717;46.924;15.474;2023-09-19T10:22:04;97797.19;;;23.38;82.21
27202;BME280;14717;46.924;15.474;2023-09-19T10:24:33;97800.69;;;23.53;82.78
27202;BME280;14717;46.924;15.474;2023-09-19T10:26:59;97800.19;;;23.70;84.40
27202;BME280;14717;46.924;15.474;2023-09-19T10:29:27;97797.69;;;23.65;78.82
27202;BME280;14717;46.924;15.474;2023-09-19T10:31:54;97801.06;;;23.74;80.60
27202;BME280;14717;46.924;15.474;2023-09-19T10:34:25;97798.81;;;23.83;77.96
27202;BME280;14717;46.924;15.474;2023-09-19T10:36:51;97803.47;;;23.98;79.42
27202;BME280;14717;46.924;15.474;2023-09-19T10:39:16;97802.47;;;23.87;82.67
27202;BME280;14717;46.924;15.474;2023-09-19T10:41:50;97805.16;;;24.02;76.61
27202;BME280;14717;46.924;15.474;2023-09-19T10:44:29;97799.13;;;23.78;76.34
27202;BME280;14717;46.924;15.474;2023-09-19T10:46:56;97800.41;;;23.84;79.56
27202;BME280;14717;46.924;15.474;2023-09-19T10:49:22;97800.00;;;24.08;78.54
27202;BME280;14717;46.924;15.474;2023-09-19T10:51:53;97806.06;;;24.36;75.38
27202;BME280;14717;46.924;15.474;2023-09-19T10:54:22;97804.84;;;24.66;75.23
27202;BME280;14717;46.924;15.474;2023-09-19T10:56:52;97793.72;;;24.80;74.32
27202;BME280;14717;46.924;15.474;2023-09-19T10:59:20;97792.50;;;24.81;71.96
27202;BME280;14717;46.924;15.474;2023-09-19T11:01:51;97788.34;;;25.04;72.16
27202;BME280;14717;46.924;15.474;2023-09-19T11:07:01;97783.59;;;24.79;71.77
27202;BME280;14717;46.924;15.474;2023-09-19T11:09:52;97780.88;;;24.89;72.39
27202;BME280;14717;46.924;15.474;2023-09-19T11:14:54;97783.69;;;25.22;63.23
27202;BME280;14717;46.924;15.474;2023-09-19T11:30:50;97767.97;;;25.64;61.45
27202;BME280;14717;46.924;15.474;2023-09-19T11:33:26;97764.13;;;25.46;61.50
27202;BME280;14717;46.924;15.474;2023-09-19T11:36:13;97767.34;;;25.91;60.93
27202;BME280;14717;46.924;15.474;2023-09-19T11:46:26;97759.50;;;26.27;55.85
27202;BME280;14717;46.924;15.474;2023-09-19T11:48:53;97758.63;;;26.16;56.97
27202;BME280;14717;46.924;15.474;2023-09-19T11:51:22;97757.34;;;26.11;52.74
27202;BME280;14717;46.924;15.474;2023-09-19T11:53:53;97752.16;;;26.19;54.06
27202;BME280;14717;46.924;15.474;2023-09-19T11:56:24;97749.44;;;26.37;54.90
27202;BME280;14717;46.924;15.474;2023-09-19T11:58:52;97746.59;;;26.40;52.60
27202;BME280;14717;46.924;15.474;2023-09-19T12:01:26;97752.31;;;26.47;49.59
27202;BME280;14717;46.924;15.474;2023-09-19T12:03:56;97742.22;;;26.53;49.18
27202;BME280;14717;46.924;15.474;2023-09-19T12:06:24;97754.44;;;26.74;53.08
27202;BME280;14717;46.924;15.474;2023-09-19T12:08:49;97738.25;;;26.78;54.35
27202;BME280;14717;46.924;15.474;2023-09-19T12:11:17;97740.75;;;26.87;55.24
27202;BME280;14717;46.924;15.474;2023-09-19T12:13:44;97740.66;;;26.73;60.55
27202;BME280;14717;46.924;15.474;2023-09-19T12:16:19;97745.97;;;26.85;57.48
27202;BME280;14717;46.924;15.474;2023-09-19T12:18:49;97742.72;;;26.76;53.71
27202;BME280;14717;46.924;15.474;2023-09-19T12:21:31;97741.44;;;26.66;50.28
27202;BME280;14717;46.924;15.474;2023-09-19T12:24:15;97732.94;;;26.63;50.27
27202;BME280;14717;46.924;15.474;2023-09-19T12:26:45;97734.59;;;26.71;52.28
27202;BME280;14717;46.924;15.474;2023-09-19T12:29:20;97740.09;;;26.29;56.76
27202;BME280;14717;46.924;15.474;2023-09-19T12:31:54;97734.47;;;26.40;56.07
27202;BME280;14717;46.924;15.474;2023-09-19T12:34:23;97741.19;;;26.14;56.94
27202;BME280;14717;46.924;15.474;2023-09-19T12:37:13;97739.16;;;26.12;55.63
27202;BME280;14717;46.924;15.474;2023-09-19T12:39:46;97742.00;;;26.15;52.51
27202;BME280;14717;46.924;15.474;2023-09-19T12:42:15;97744.13;;;26.28;52.49
27202;BME280;14717;46.924;15.474;2023-09-19T12:44:43;97746.59;;;26.33;52.72
27202;BME280;14717;46.924;15.474;2023-09-19T12:47:14;97746.63;;;26.44;53.28
27202;BME280;14717;46.924;15.474;2023-09-19T12:50:10;97738.50;;;26.35;52.51
27202;BME280;14717;46.924;15.474;2023-09-19T12:52:47;97744.25;;;26.49;51.71
27202;BME280;14717;46.924;15.474;2023-09-19T12:55:30;97745.41;;;26.38;53.87
27202;BME280;14717;46.924;15.474;2023-09-19T12:58:14;97754.56;;;26.17;55.85
27202;BME280;14717;46.924;15.474;2023-09-19T13:00:44;97753.88;;;26.34;56.36
27202;BME280;14717;46.924;15.474;2023-09-19T13:05:57;97761.13;;;26.28;54.60
27202;BME280;14717;46.924;15.474;2023-09-19T13:08:34;97760.53;;;25.99;57.60
27202;BME280;14717;46.924;15.474;2023-09-19T13:11:13;97769.75;;;25.89;59.04
27202;BME280;14717;46.924;15.474;2023-09-19T13:13:44;97760.81;;;25.80;58.75
27202;BME280;14717;46.924;15.474;2023-09-19T13:16:13;97766.50;;;25.83;58.74
27202;BME280;14717;46.924;15.474;2023-09-19T13:18:48;97767.28;;;25.84;59.19
27202;BME280;14717;46.924;15.474;2023-09-19T13:21:27;97757.13;;;25.76;58.29
27202;BME280;14717;46.924;15.474;2023-09-19T13:23:55;97761.47;;;25.63;58.01
27202;BME280;14717;46.924;15.474;2023-09-19T13:26:25;97753.59;;;25.43;61.02
27202;BME280;14717;46.924;15.474;2023-09-19T13:28:50;97748.53;;;25.62;61.23
27202;BME280;14717;46.924;15.474;2023-09-19T13:31:16;97750.25;;;25.73;60.08
27202;BME280;14717;46.924;15.474;2023-09-19T13:33:47;97738.16;;;25.80;61.51
27202;BME280;14717;46.924;15.474;2023-09-19T13:36:13;97742.63;;;25.88;58.44
27202;BME280;14717;46.924;15.474;2023-09-19T13:38:41;97754.41;;;25.90;59.20
27202;BME280;14717;46.924;15.474;2023-09-19T13:41:10;97741.19;;;26.14;58.55
27202;BME280;14717;46.924;15.474;2023-09-19T13:43:39;97749.81;;;26.32;57.91
27202;BME280;14717;46.924;15.474;2023-09-19T13:46:05;97744.25;;;26.49;57.30